Skip Navigation LinksHome page > Weather > Current weather Skip Navigation Links

Current Weather

Mc Carran Intl, Las Vegas, Nev.

For information only: do not use for flight planning or navigation.
Latest weather
Observation time Friday, August 14, 2020 8:56 AM PDT
Local time Friday, August 14, 2020 9:57 AM PDT
Flight conditions Visual Meteorological Conditions
Winds
Wind speed calm
Visibility 10 mi.
Sky condition
Ceiling unlimited
Cloud layer few clouds 15,000 ft.
Cloud layer scattered clouds 25,000 ft.
Temperature 94°F
Dewpoint 46°F
Altimeter 29.99 in.Hg
Derived measurements
Relative humidity 20%
Heat index 94°F
Density altitude 4463 ft.
Sea-level pressure 29.89 in.Hg
Remarks
Automated weather observing station with precipitation discriminator.
METAR KLAS 141556Z 00000KT 10SM FEW150 SCT250 34/08 A2999 RMK AO2 SLP121 T03440078

Settings

Location code

InnerDrive.Weather 4.0.6770.0 Release CLR 4.0.30319.42000
Copyright ©2018 Inner Drive Technology. All rights reserved. Portions Copyright ©1986-2018 David Braverman.

Find weather

Site navigation


Skip Navigation Links

Place info

Page info

PayPal - The safer, easier way to pay online!

Return home.

Copyright ©2020 Inner Drive Technology. Purveyors of fine, hand-crafted computer software. Page printed 2020-08-14T16:57:43 UTC.